sensor_id;sensor_type;location;lat;lon;timestamp;P1;durP1;ratioP1;P2;durP2;ratioP2
62580;SDS011;48640;48.770;9.148;2023-03-04T00:01:35;31.75;;;16.00;;
62580;SDS011;48640;48.770;9.148;2023-03-04T00:04:02;33.92;;;17.15;;
62580;SDS011;48640;48.770;9.148;2023-03-04T00:06:29;31.08;;;18.08;;
62580;SDS011;48640;48.770;9.148;2023-03-04T00:08:56;34.47;;;16.98;;
62580;SDS011;48640;48.770;9.148;2023-03-04T00:11:23;35.95;;;17.35;;
62580;SDS011;48640;48.770;9.148;2023-03-04T00:13:51;30.55;;;17.52;;
62580;SDS011;48640;48.770;9.148;2023-03-04T00:16:18;33.35;;;18.85;;
62580;SDS011;48640;48.770;9.148;2023-03-04T00:18:45;28.95;;;17.30;;
62580;SDS011;48640;48.770;9.148;2023-03-04T00:21:11;29.48;;;17.27;;
62580;SDS011;48640;48.770;9.148;2023-03-04T00:23:38;32.63;;;17.00;;
62580;SDS011;48640;48.770;9.148;2023-03-04T00:26:07;32.45;;;17.73;;
62580;SDS011;48640;48.770;9.148;2023-03-04T00:28:34;30.13;;;17.40;;
62580;SDS011;48640;48.770;9.148;2023-03-04T00:31:02;27.75;;;16.95;;
62580;SDS011;48640;48.770;9.148;2023-03-04T00:33:29;33.97;;;17.55;;
62580;SDS011;48640;48.770;9.148;2023-03-04T00:35:55;32.92;;;17.73;;
62580;SDS011;48640;48.770;9.148;2023-03-04T00:38:22;30.63;;;15.93;;
62580;SDS011;48640;48.770;9.148;2023-03-04T00:40:49;32.20;;;17.58;;
62580;SDS011;48640;48.770;9.148;2023-03-04T00:43:16;31.45;;;16.10;;
62580;SDS011;48640;48.770;9.148;2023-03-04T00:45:43;33.35;;;18.02;;
62580;SDS011;48640;48.770;9.148;2023-03-04T00:48:12;30.02;;;17.15;;
62580;SDS011;48640;48.770;9.148;2023-03-04T00:50:40;30.00;;;15.60;;
62580;SDS011;48640;48.770;9.148;2023-03-04T00:53:07;32.88;;;16.83;;
62580;SDS011;48640;48.770;9.148;2023-03-04T00:55:34;36.83;;;17.10;;
62580;SDS011;48640;48.770;9.148;2023-03-04T00:58:01;34.53;;;18.23;;
62580;SDS011;48640;48.770;9.148;2023-03-04T01:00:28;28.35;;;16.50;;
62580;SDS011;48640;48.770;9.148;2023-03-04T01:02:55;28.45;;;16.08;;
62580;SDS011;48640;48.770;9.148;2023-03-04T01:05:23;29.55;;;17.60;;
62580;SDS011;48640;48.770;9.148;2023-03-04T01:07:50;27.08;;;14.43;;
62580;SDS011;48640;48.770;9.148;2023-03-04T01:10:17;29.67;;;16.15;;
62580;SDS011;48640;48.770;9.148;2023-03-04T01:12:44;27.05;;;15.85;;
62580;SDS011;48640;48.770;9.148;2023-03-04T01:15:11;31.02;;;17.00;;
62580;SDS011;48640;48.770;9.148;2023-03-04T01:17:39;32.58;;;16.92;;
62580;SDS011;48640;48.770;9.148;2023-03-04T01:20:07;29.63;;;16.50;;
62580;SDS011;48640;48.770;9.148;2023-03-04T01:22:36;31.27;;;16.65;;
62580;SDS011;48640;48.770;9.148;2023-03-04T01:25:03;30.00;;;16.30;;
62580;SDS011;48640;48.770;9.148;2023-03-04T01:27:30;32.20;;;17.90;;
62580;SDS011;48640;48.770;9.148;2023-03-04T01:29:57;29.35;;;15.82;;
62580;SDS011;48640;48.770;9.148;2023-03-04T01:32:24;31.77;;;17.30;;
62580;SDS011;48640;48.770;9.148;2023-03-04T01:34:51;33.92;;;17.52;;
62580;SDS011;48640;48.770;9.148;2023-03-04T01:37:17;33.35;;;15.57;;
62580;SDS011;48640;48.770;9.148;2023-03-04T01:39:45;30.55;;;16.35;;
62580;SDS011;48640;48.770;9.148;2023-03-04T01:42:13;32.40;;;17.67;;
62580;SDS011;48640;48.770;9.148;2023-03-04T01:44:44;29.98;;;16.90;;
62580;SDS011;48640;48.770;9.148;2023-03-04T01:47:12;30.98;;;16.52;;
62580;SDS011;48640;48.770;9.148;2023-03-04T01:49:39;32.47;;;17.23;;
62580;SDS011;48640;48.770;9.148;2023-03-04T01:52:08;29.95;;;16.35;;
62580;SDS011;48640;48.770;9.148;2023-03-04T01:54:36;33.05;;;15.82;;
62580;SDS011;48640;48.770;9.148;2023-03-04T01:57:08;29.60;;;16.17;;
62580;SDS011;48640;48.770;9.148;2023-03-04T01:59:41;33.60;;;17.48;;
62580;SDS011;48640;48.770;9.148;2023-03-04T02:02:08;30.20;;;16.63;;
62580;SDS011;48640;48.770;9.148;2023-03-04T02:04:35;32.97;;;17.10;;
62580;SDS011;48640;48.770;9.148;2023-03-04T02:07:02;33.55;;;18.55;;
62580;SDS011;48640;48.770;9.148;2023-03-04T02:09:31;27.60;;;16.13;;
62580;SDS011;48640;48.770;9.148;2023-03-04T02:11:59;27.27;;;15.30;;
62580;SDS011;48640;48.770;9.148;2023-03-04T02:14:28;30.17;;;15.00;;
62580;SDS011;48640;48.770;9.148;2023-03-04T02:16:55;31.70;;;16.70;;
62580;SDS011;48640;48.770;9.148;2023-03-04T02:19:24;27.75;;;15.95;;
62580;SDS011;48640;48.770;9.148;2023-03-04T02:22:00;26.83;;;15.40;;
62580;SDS011;48640;48.770;9.148;2023-03-04T02:24:28;31.35;;;16.30;;
62580;SDS011;48640;48.770;9.148;2023-03-04T02:26:59;31.50;;;15.63;;
62580;SDS011;48640;48.770;9.148;2023-03-04T02:29:26;35.40;;;16.77;;
62580;SDS011;48640;48.770;9.148;2023-03-04T02:31:53;26.58;;;14.98;;
62580;SDS011;48640;48.770;9.148;2023-03-04T02:34:21;25.05;;;14.15;;
62580;SDS011;48640;48.770;9.148;2023-03-04T02:36:50;30.40;;;15.63;;
62580;SDS011;48640;48.770;9.148;2023-03-04T02:39:21;27.08;;;15.15;;
62580;SDS011;48640;48.770;9.148;2023-03-04T02:41:51;27.50;;;15.02;;
62580;SDS011;48640;48.770;9.148;2023-03-04T02:44:21;29.17;;;16.30;;
62580;SDS011;48640;48.770;9.148;2023-03-04T02:46:49;31.42;;;15.90;;
62580;SDS011;48640;48.770;9.148;2023-03-04T02:49:17;25.25;;;14.52;;
62580;SDS011;48640;48.770;9.148;2023-03-04T02:51:45;26.40;;;14.85;;
62580;SDS011;48640;48.770;9.148;2023-03-04T02:54:13;31.48;;;16.80;;
62580;SDS011;48640;48.770;9.148;2023-03-04T02:56:43;31.73;;;14.85;;
62580;SDS011;48640;48.770;9.148;2023-03-04T02:59:11;25.20;;;14.27;;
62580;SDS011;48640;48.770;9.148;2023-03-04T03:01:39;28.00;;;15.98;;
62580;SDS011;48640;48.770;9.148;2023-03-04T03:04:06;28.75;;;14.95;;
62580;SDS011;48640;48.770;9.148;2023-03-04T03:06:33;30.80;;;17.02;;
62580;SDS011;48640;48.770;9.148;2023-03-04T03:09:00;28.70;;;14.45;;
62580;SDS011;48640;48.770;9.148;2023-03-04T03:11:27;28.48;;;14.82;;
62580;SDS011;48640;48.770;9.148;2023-03-04T03:13:54;29.88;;;15.32;;
62580;SDS011;48640;48.770;9.148;2023-03-04T03:16:21;29.20;;;15.75;;
62580;SDS011;48640;48.770;9.148;2023-03-04T03:18:49;27.85;;;15.35;;
62580;SDS011;48640;48.770;9.148;2023-03-04T03:21:15;28.13;;;15.45;;
62580;SDS011;48640;48.770;9.148;2023-03-04T03:23:42;27.90;;;14.98;;
62580;SDS011;48640;48.770;9.148;2023-03-04T03:26:09;25.60;;;14.50;;
62580;SDS011;48640;48.770;9.148;2023-03-04T03:28:36;28.05;;;15.40;;
62580;SDS011;48640;48.770;9.148;2023-03-04T03:31:03;29.02;;;15.38;;
62580;SDS011;48640;48.770;9.148;2023-03-04T03:33:30;28.55;;;15.02;;
62580;SDS011;48640;48.770;9.148;2023-03-04T03:35:58;28.33;;;16.35;;
62580;SDS011;48640;48.770;9.148;2023-03-04T03:38:25;28.20;;;14.43;;
62580;SDS011;48640;48.770;9.148;2023-03-04T03:40:52;27.73;;;14.75;;
62580;SDS011;48640;48.770;9.148;2023-03-04T03:43:19;28.70;;;15.43;;
62580;SDS011;48640;48.770;9.148;2023-03-04T03:45:45;25.88;;;14.30;;
62580;SDS011;48640;48.770;9.148;2023-03-04T03:48:12;27.77;;;15.25;;
62580;SDS011;48640;48.770;9.148;2023-03-04T03:50:39;30.58;;;16.15;;
62580;SDS011;48640;48.770;9.148;2023-03-04T03:53:07;28.83;;;15.70;;
62580;SDS011;48640;48.770;9.148;2023-03-04T03:55:34;27.30;;;14.63;;
62580;SDS011;48640;48.770;9.148;2023-03-04T03:58:01;29.55;;;15.65;;
62580;SDS011;48640;48.770;9.148;2023-03-04T04:00:27;28.02;;;14.38;;
62580;SDS011;48640;48.770;9.148;2023-03-04T04:02:54;24.92;;;14.25;;
62580;SDS011;48640;48.770;9.148;2023-03-04T04:05:23;25.17;;;14.35;;
62580;SDS011;48640;48.770;9.148;2023-03-04T04:07:50;25.83;;;13.25;;
62580;SDS011;48640;48.770;9.148;2023-03-04T04:10:18;26.95;;;14.68;;
62580;SDS011;48640;48.770;9.148;2023-03-04T04:12:45;27.95;;;13.88;;
62580;SDS011;48640;48.770;9.148;2023-03-04T04:15:12;28.92;;;17.10;;
62580;SDS011;48640;48.770;9.148;2023-03-04T04:17:39;26.83;;;14.02;;
62580;SDS011;48640;48.770;9.148;2023-03-04T04:20:06;26.23;;;12.95;;
62580;SDS011;48640;48.770;9.148;2023-03-04T04:22:34;25.63;;;13.55;;
62580;SDS011;48640;48.770;9.148;2023-03-04T04:25:01;23.52;;;12.93;;
62580;SDS011;48640;48.770;9.148;2023-03-04T04:27:30;28.48;;;15.70;;
62580;SDS011;48640;48.770;9.148;2023-03-04T04:29:57;25.90;;;13.55;;
62580;SDS011;48640;48.770;9.148;2023-03-04T04:32:23;23.48;;;12.20;;
62580;SDS011;48640;48.770;9.148;2023-03-04T04:34:50;25.15;;;13.40;;
62580;SDS011;48640;48.770;9.148;2023-03-04T04:37:17;28.95;;;14.70;;
62580;SDS011;48640;48.770;9.148;2023-03-04T04:39:44;28.08;;;13.13;;
62580;SDS011;48640;48.770;9.148;2023-03-04T04:42:10;26.83;;;14.35;;
62580;SDS011;48640;48.770;9.148;2023-03-04T04:44:39;24.48;;;13.45;;
62580;SDS011;48640;48.770;9.148;2023-03-04T04:47:05;24.30;;;12.95;;
62580;SDS011;48640;48.770;9.148;2023-03-04T04:49:32;26.45;;;13.45;;
62580;SDS011;48640;48.770;9.148;2023-03-04T04:51:59;30.67;;;15.60;;
62580;SDS011;48640;48.770;9.148;2023-03-04T04:54:26;28.00;;;14.30;;
62580;SDS011;48640;48.770;9.148;2023-03-04T04:56:53;26.88;;;14.32;;
62580;SDS011;48640;48.770;9.148;2023-03-04T04:59:20;25.13;;;12.32;;
62580;SDS011;48640;48.770;9.148;2023-03-04T05:01:48;24.92;;;13.00;;
62580;SDS011;48640;48.770;9.148;2023-03-04T05:04:15;26.73;;;13.10;;
62580;SDS011;48640;48.770;9.148;2023-03-04T05:06:42;28.08;;;14.40;;
62580;SDS011;48640;48.770;9.148;2023-03-04T05:09:09;26.40;;;13.88;;
62580;SDS011;48640;48.770;9.148;2023-03-04T05:11:35;25.08;;;13.48;;
62580;SDS011;48640;48.770;9.148;2023-03-04T05:14:02;27.10;;;14.55;;
62580;SDS011;48640;48.770;9.148;2023-03-04T05:16:29;27.33;;;13.65;;
62580;SDS011;48640;48.770;9.148;2023-03-04T05:18:58;26.45;;;13.88;;
62580;SDS011;48640;48.770;9.148;2023-03-04T05:21:25;25.17;;;13.63;;
62580;SDS011;48640;48.770;9.148;2023-03-04T05:23:51;26.67;;;13.60;;
62580;SDS011;48640;48.770;9.148;2023-03-04T05:26:18;24.58;;;13.93;;
62580;SDS011;48640;48.770;9.148;2023-03-04T05:28:45;26.10;;;13.23;;
62580;SDS011;48640;48.770;9.148;2023-03-04T05:31:12;24.30;;;12.05;;
62580;SDS011;48640;48.770;9.148;2023-03-04T05:33:38;25.85;;;13.38;;
62580;SDS011;48640;48.770;9.148;2023-03-04T05:36:07;24.42;;;13.15;;
62580;SDS011;48640;48.770;9.148;2023-03-04T05:38:34;24.10;;;12.70;;
62580;SDS011;48640;48.770;9.148;2023-03-04T05:41:01;24.05;;;13.75;;
62580;SDS011;48640;48.770;9.148;2023-03-04T05:43:30;26.92;;;13.25;;
62580;SDS011;48640;48.770;9.148;2023-03-04T05:45:59;25.98;;;13.43;;
62580;SDS011;48640;48.770;9.148;2023-03-04T05:48:26;27.77;;;13.88;;
62580;SDS011;48640;48.770;9.148;2023-03-04T05:50:54;27.50;;;14.40;;
62580;SDS011;48640;48.770;9.148;2023-03-04T05:53:23;28.10;;;15.32;;
62580;SDS011;48640;48.770;9.148;2023-03-04T05:55:50;28.85;;;13.30;;
62580;SDS011;48640;48.770;9.148;2023-03-04T05:58:17;26.13;;;14.63;;
62580;SDS011;48640;48.770;9.148;2023-03-04T06:00:44;27.25;;;14.57;;
62580;SDS011;48640;48.770;9.148;2023-03-04T06:03:12;28.60;;;14.80;;
62580;SDS011;48640;48.770;9.148;2023-03-04T06:05:41;28.83;;;15.48;;
62580;SDS011;48640;48.770;9.148;2023-03-04T06:08:08;27.85;;;14.32;;
62580;SDS011;48640;48.770;9.148;2023-03-04T06:10:36;33.25;;;16.30;;
62580;SDS011;48640;48.770;9.148;2023-03-04T06:13:03;27.02;;;13.32;;
62580;SDS011;48640;48.770;9.148;2023-03-04T06:15:30;32.40;;;16.63;;
62580;SDS011;48640;48.770;9.148;2023-03-04T06:17:57;29.55;;;16.67;;
62580;SDS011;48640;48.770;9.148;2023-03-04T06:20:24;29.15;;;14.32;;
62580;SDS011;48640;48.770;9.148;2023-03-04T06:22:51;36.83;;;15.88;;
62580;SDS011;48640;48.770;9.148;2023-03-04T06:25:18;34.65;;;17.60;;
62580;SDS011;48640;48.770;9.148;2023-03-04T06:27:46;36.90;;;17.17;;
62580;SDS011;48640;48.770;9.148;2023-03-04T06:30:13;33.08;;;15.77;;
62580;SDS011;48640;48.770;9.148;2023-03-04T06:32:40;37.33;;;17.67;;
62580;SDS011;48640;48.770;9.148;2023-03-04T06:35:08;35.50;;;16.90;;
62580;SDS011;48640;48.770;9.148;2023-03-04T06:37:35;32.83;;;15.80;;
62580;SDS011;48640;48.770;9.148;2023-03-04T06:40:02;38.50;;;19.23;;
62580;SDS011;48640;48.770;9.148;2023-03-04T06:42:30;38.93;;;18.63;;
62580;SDS011;48640;48.770;9.148;2023-03-04T06:44:58;37.20;;;18.60;;
62580;SDS011;48640;48.770;9.148;2023-03-04T06:47:25;32.77;;;16.33;;
62580;SDS011;48640;48.770;9.148;2023-03-04T06:49:52;34.92;;;16.05;;
62580;SDS011;48640;48.770;9.148;2023-03-04T06:52:19;35.45;;;16.58;;
62580;SDS011;48640;48.770;9.148;2023-03-04T06:54:46;39.90;;;18.73;;
62580;SDS011;48640;48.770;9.148;2023-03-04T06:57:12;36.58;;;16.95;;
62580;SDS011;48640;48.770;9.148;2023-03-04T06:59:39;33.58;;;17.40;;
62580;SDS011;48640;48.770;9.148;2023-03-04T07:02:09;33.45;;;16.92;;
62580;SDS011;48640;48.770;9.148;2023-03-04T07:04:37;35.45;;;16.15;;
62580;SDS011;48640;48.770;9.148;2023-03-04T07:07:03;37.47;;;19.00;;
62580;SDS011;48640;48.770;9.148;2023-03-04T07:09:30;38.08;;;18.08;;
62580;SDS011;48640;48.770;9.148;2023-03-04T07:11:57;30.40;;;17.05;;
62580;SDS011;48640;48.770;9.148;2023-03-04T07:14:24;34.88;;;17.85;;
62580;SDS011;48640;48.770;9.148;2023-03-04T07:16:51;34.65;;;15.88;;
62580;SDS011;48640;48.770;9.148;2023-03-04T07:19:20;32.47;;;16.50;;
62580;SDS011;48640;48.770;9.148;2023-03-04T07:21:47;34.05;;;19.15;;
62580;SDS011;48640;48.770;9.148;2023-03-04T07:24:14;35.00;;;15.85;;
62580;SDS011;48640;48.770;9.148;2023-03-04T07:26:41;30.17;;;14.85;;
62580;SDS011;48640;48.770;9.148;2023-03-04T07:29:07;30.77;;;17.17;;
62580;SDS011;48640;48.770;9.148;2023-03-04T07:31:34;29.67;;;16.25;;
62580;SDS011;48640;48.770;9.148;2023-03-04T07:34:02;27.60;;;14.48;;
62580;SDS011;48640;48.770;9.148;2023-03-04T07:36:31;25.35;;;13.57;;
62580;SDS011;48640;48.770;9.148;2023-03-04T07:38:58;30.63;;;14.95;;
62580;SDS011;48640;48.770;9.148;2023-03-04T07:41:26;29.40;;;15.35;;
62580;SDS011;48640;48.770;9.148;2023-03-04T07:43:54;26.80;;;13.52;;
62580;SDS011;48640;48.770;9.148;2023-03-04T07:46:22;28.20;;;14.93;;
62580;SDS011;48640;48.770;9.148;2023-03-04T07:48:49;32.50;;;15.95;;
62580;SDS011;48640;48.770;9.148;2023-03-04T07:51:16;27.02;;;14.57;;
62580;SDS011;48640;48.770;9.148;2023-03-04T07:53:46;27.48;;;13.95;;
62580;SDS011;48640;48.770;9.148;2023-03-04T07:56:15;28.73;;;14.18;;
62580;SDS011;48640;48.770;9.148;2023-03-04T07:58:43;32.05;;;15.20;;
62580;SDS011;48640;48.770;9.148;2023-03-04T08:01:10;29.58;;;14.00;;
62580;SDS011;48640;48.770;9.148;2023-03-04T08:03:38;32.45;;;15.43;;
62580;SDS011;48640;48.770;9.148;2023-03-04T08:06:05;34.58;;;15.57;;
62580;SDS011;48640;48.770;9.148;2023-03-04T08:08:34;28.63;;;16.73;;
62580;SDS011;48640;48.770;9.148;2023-03-04T08:11:04;29.92;;;15.32;;
62580;SDS011;48640;48.770;9.148;2023-03-04T08:15:58;31.55;;;16.30;;
62580;SDS011;48640;48.770;9.148;2023-03-04T08:18:25;28.38;;;14.32;;
62580;SDS011;48640;48.770;9.148;2023-03-04T08:20:52;29.45;;;15.93;;
62580;SDS011;48640;48.770;9.148;2023-03-04T08:23:19;31.95;;;14.90;;
62580;SDS011;48640;48.770;9.148;2023-03-04T08:25:46;35.58;;;15.73;;
62580;SDS011;48640;48.770;9.148;2023-03-04T08:28:15;28.08;;;15.40;;
62580;SDS011;48640;48.770;9.148;2023-03-04T08:30:42;29.85;;;15.90;;
62580;SDS011;48640;48.770;9.148;2023-03-04T08:33:09;26.75;;;13.55;;
62580;SDS011;48640;48.770;9.148;2023-03-04T08:35:36;32.72;;;15.80;;
62580;SDS011;48640;48.770;9.148;2023-03-04T08:38:04;34.17;;;17.10;;
62580;SDS011;48640;48.770;9.148;2023-03-04T08:40:31;28.90;;;15.77;;
62580;SDS011;48640;48.770;9.148;2023-03-04T08:42:58;29.85;;;15.45;;
62580;SDS011;48640;48.770;9.148;2023-03-04T08:45:27;29.92;;;15.88;;
62580;SDS011;48640;48.770;9.148;2023-03-04T08:47:54;30.75;;;16.90;;
62580;SDS011;48640;48.770;9.148;2023-03-04T08:50:21;32.25;;;14.90;;
62580;SDS011;48640;48.770;9.148;2023-03-04T08:52:47;31.50;;;14.98;;
62580;SDS011;48640;48.770;9.148;2023-03-04T08:55:14;33.60;;;16.02;;
62580;SDS011;48640;48.770;9.148;2023-03-04T08:57:41;30.00;;;16.38;;
62580;SDS011;48640;48.770;9.148;2023-03-04T09:00:09;31.77;;;15.65;;
62580;SDS011;48640;48.770;9.148;2023-03-04T09:02:38;34.78;;;16.55;;
62580;SDS011;48640;48.770;9.148;2023-03-04T09:05:05;31.75;;;14.75;;
62580;SDS011;48640;48.770;9.148;2023-03-04T09:07:33;28.25;;;15.25;;
62580;SDS011;48640;48.770;9.148;2023-03-04T09:09:59;25.13;;;13.85;;
62580;SDS011;48640;48.770;9.148;2023-03-04T09:12:26;28.88;;;15.93;;
62580;SDS011;48640;48.770;9.148;2023-03-04T09:14:53;27.38;;;15.98;;
62580;SDS011;48640;48.770;9.148;2023-03-04T09:17:20;31.67;;;15.15;;
62580;SDS011;48640;48.770;9.148;2023-03-04T09:19:48;27.77;;;14.52;;
62580;SDS011;48640;48.770;9.148;2023-03-04T09:22:15;25.95;;;13.45;;
62580;SDS011;48640;48.770;9.148;2023-03-04T09:24:41;33.30;;;15.35;;
62580;SDS011;48640;48.770;9.148;2023-03-04T09:27:08;28.75;;;15.40;;
62580;SDS011;48640;48.770;9.148;2023-03-04T09:29:35;25.85;;;14.30;;
62580;SDS011;48640;48.770;9.148;2023-03-04T09:32:02;27.60;;;14.25;;
62580;SDS011;48640;48.770;9.148;2023-03-04T09:34:29;25.95;;;13.80;;
62580;SDS011;48640;48.770;9.148;2023-03-04T09:36:57;26.63;;;14.50;;
62580;SDS011;48640;48.770;9.148;2023-03-04T09:39:24;24.75;;;14.43;;
62580;SDS011;48640;48.770;9.148;2023-03-04T09:41:51;30.10;;;14.88;;
62580;SDS011;48640;48.770;9.148;2023-03-04T09:44:22;25.13;;;14.13;;
62580;SDS011;48640;48.770;9.148;2023-03-04T09:46:52;28.23;;;15.30;;
62580;SDS011;48640;48.770;9.148;2023-03-04T09:49:22;29.20;;;16.13;;
62580;SDS011;48640;48.770;9.148;2023-03-04T09:51:58;26.60;;;14.88;;
62580;SDS011;48640;48.770;9.148;2023-03-04T09:54:32;27.80;;;16.35;;
62580;SDS011;48640;48.770;9.148;2023-03-04T09:57:20;27.08;;;14.18;;
62580;SDS011;48640;48.770;9.148;2023-03-04T09:59:54;26.38;;;14.75;;
62580;SDS011;48640;48.770;9.148;2023-03-04T10:02:34;30.10;;;15.27;;
62580;SDS011;48640;48.770;9.148;2023-03-04T10:05:11;27.30;;;15.75;;
62580;SDS011;48640;48.770;9.148;2023-03-04T10:07:45;29.33;;;16.30;;
62580;SDS011;48640;48.770;9.148;2023-03-04T10:10:18;26.40;;;15.77;;
62580;SDS011;48640;48.770;9.148;2023-03-04T10:12:50;29.42;;;16.02;;
62580;SDS011;48640;48.770;9.148;2023-03-04T10:15:21;33.72;;;18.15;;
62580;SDS011;48640;48.770;9.148;2023-03-04T10:18:00;32.97;;;20.40;;
62580;SDS011;48640;48.770;9.148;2023-03-04T10:20:38;33.25;;;17.60;;
62580;SDS011;48640;48.770;9.148;2023-03-04T10:23:17;30.88;;;16.83;;
62580;SDS011;48640;48.770;9.148;2023-03-04T10:25:47;28.42;;;17.02;;
62580;SDS011;48640;48.770;9.148;2023-03-04T10:28:19;30.13;;;17.70;;
62580;SDS011;48640;48.770;9.148;2023-03-04T10:30:49;31.77;;;17.92;;
62580;SDS011;48640;48.770;9.148;2023-03-04T10:33:23;33.05;;;19.75;;
62580;SDS011;48640;48.770;9.148;2023-03-04T10:35:54;31.13;;;18.02;;
62580;SDS011;48640;48.770;9.148;2023-03-04T10:38:28;36.58;;;19.20;;
62580;SDS011;48640;48.770;9.148;2023-03-04T10:40:57;31.38;;;17.25;;
62580;SDS011;48640;48.770;9.148;2023-03-04T10:43:25;35.47;;;19.65;;
62580;SDS011;48640;48.770;9.148;2023-03-04T10:45:53;35.80;;;19.40;;
62580;SDS011;48640;48.770;9.148;2023-03-04T10:48:23;34.50;;;19.92;;
62580;SDS011;48640;48.770;9.148;2023-03-04T10:50:51;36.95;;;19.55;;
62580;SDS011;48640;48.770;9.148;2023-03-04T10:53:27;35.72;;;18.52;;
62580;SDS011;48640;48.770;9.148;2023-03-04T10:55:58;38.67;;;21.92;;
62580;SDS011;48640;48.770;9.148;2023-03-04T10:58:26;38.65;;;21.20;;
62580;SDS011;48640;48.770;9.148;2023-03-04T11:01:00;37.17;;;21.40;;
62580;SDS011;48640;48.770;9.148;2023-03-04T11:03:30;35.38;;;20.92;;
62580;SDS011;48640;48.770;9.148;2023-03-04T11:06:04;38.97;;;22.08;;
62580;SDS011;48640;48.770;9.148;2023-03-04T11:08:34;35.47;;;20.48;;
62580;SDS011;48640;48.770;9.148;2023-03-04T11:11:01;39.60;;;23.90;;
62580;SDS011;48640;48.770;9.148;2023-03-04T11:13:28;44.28;;;23.73;;
62580;SDS011;48640;48.770;9.148;2023-03-04T11:15:57;40.97;;;22.48;;
62580;SDS011;48640;48.770;9.148;2023-03-04T11:18:27;43.90;;;22.73;;
62580;SDS011;48640;48.770;9.148;2023-03-04T11:21:00;47.30;;;25.35;;
62580;SDS011;48640;48.770;9.148;2023-03-04T11:23:30;39.30;;;22.08;;
62580;SDS011;48640;48.770;9.148;2023-03-04T11:26:05;43.72;;;22.92;;
62580;SDS011;48640;48.770;9.148;2023-03-04T11:28:38;45.70;;;23.33;;
62580;SDS011;48640;48.770;9.148;2023-03-04T11:31:08;43.53;;;23.67;;
62580;SDS011;48640;48.770;9.148;2023-03-04T11:33:41;43.05;;;22.75;;
62580;SDS011;48640;48.770;9.148;2023-03-04T11:36:20;43.35;;;25.40;;
62580;SDS011;48640;48.770;9.148;2023-03-04T11:38:55;41.83;;;23.52;;
62580;SDS011;48640;48.770;9.148;2023-03-04T11:41:24;42.33;;;25.10;;
62580;SDS011;48640;48.770;9.148;2023-03-04T11:43:56;44.85;;;24.60;;
62580;SDS011;48640;48.770;9.148;2023-03-04T11:46:27;45.25;;;24.73;;
62580;SDS011;48640;48.770;9.148;2023-03-04T11:49:19;39.97;;;22.30;;
62580;SDS011;48640;48.770;9.148;2023-03-04T11:52:13;42.10;;;23.00;;
62580;SDS011;48640;48.770;9.148;2023-03-04T11:54:53;44.75;;;24.38;;
62580;SDS011;48640;48.770;9.148;2023-03-04T11:57:30;42.42;;;22.98;;
62580;SDS011;48640;48.770;9.148;2023-03-04T12:03:10;46.28;;;24.77;;
62580;SDS011;48640;48.770;9.148;2023-03-04T12:06:01;45.80;;;23.23;;
62580;SDS011;48640;48.770;9.148;2023-03-04T12:08:44;44.47;;;26.10;;
62580;SDS011;48640;48.770;9.148;2023-03-04T12:11:21;44.15;;;23.77;;
62580;SDS011;48640;48.770;9.148;2023-03-04T12:13:59;40.30;;;21.88;;
62580;SDS011;48640;48.770;9.148;2023-03-04T12:16:38;39.30;;;23.80;;
62580;SDS011;48640;48.770;9.148;2023-03-04T12:19:20;42.22;;;23.40;;
62580;SDS011;48640;48.770;9.148;2023-03-04T12:24:48;40.63;;;23.65;;
62580;SDS011;48640;48.770;9.148;2023-03-04T12:27:44;41.28;;;23.05;;
62580;SDS011;48640;48.770;9.148;2023-03-04T12:30:20;38.58;;;21.33;;
62580;SDS011;48640;48.770;9.148;2023-03-04T12:33:00;39.22;;;22.33;;
62580;SDS011;48640;48.770;9.148;2023-03-04T12:35:36;44.13;;;23.30;;
62580;SDS011;48640;48.770;9.148;2023-03-04T12:38:10;38.05;;;23.10;;
62580;SDS011;48640;48.770;9.148;2023-03-04T12:40:52;41.13;;;22.15;;
62580;SDS011;48640;48.770;9.148;2023-03-04T12:43:40;43.58;;;23.83;;
62580;SDS011;48640;48.770;9.148;2023-03-04T12:46:17;40.42;;;25.02;;
62580;SDS011;48640;48.770;9.148;2023-03-04T12:48:52;40.80;;;22.30;;
62580;SDS011;48640;48.770;9.148;2023-03-04T12:51:29;38.92;;;24.17;;
62580;SDS011;48640;48.770;9.148;2023-03-04T12:54:03;41.65;;;24.48;;
62580;SDS011;48640;48.770;9.148;2023-03-04T12:56:38;42.70;;;23.42;;
62580;SDS011;48640;48.770;9.148;2023-03-04T12:59:11;41.83;;;24.10;;
62580;SDS011;48640;48.770;9.148;2023-03-04T13:01:41;46.13;;;25.52;;
62580;SDS011;48640;48.770;9.148;2023-03-04T13:04:15;43.08;;;24.23;;
62580;SDS011;48640;48.770;9.148;2023-03-04T13:06:48;42.22;;;25.23;;
62580;SDS011;48640;48.770;9.148;2023-03-04T13:09:28;44.80;;;25.42;;
62580;SDS011;48640;48.770;9.148;2023-03-04T13:12:03;44.78;;;24.25;;
62580;SDS011;48640;48.770;9.148;2023-03-04T13:14:42;41.22;;;23.85;;
62580;SDS011;48640;48.770;9.148;2023-03-04T13:17:59;45.08;;;25.23;;
62580;SDS011;48640;48.770;9.148;2023-03-04T13:20:35;46.38;;;24.90;;
62580;SDS011;48640;48.770;9.148;2023-03-04T13:23:18;45.20;;;23.92;;
62580;SDS011;48640;48.770;9.148;2023-03-04T13:28:41;39.15;;;21.80;;
62580;SDS011;48640;48.770;9.148;2023-03-04T13:31:13;46.88;;;24.27;;
62580;SDS011;48640;48.770;9.148;2023-03-04T13:33:50;42.55;;;23.85;;
62580;SDS011;48640;48.770;9.148;2023-03-04T13:39:27;41.33;;;22.83;;
62580;SDS011;48640;48.770;9.148;2023-03-04T13:42:03;45.85;;;22.88;;
62580;SDS011;48640;48.770;9.148;2023-03-04T13:47:33;40.00;;;21.48;;
62580;SDS011;48640;48.770;9.148;2023-03-04T13:53:01;35.67;;;19.95;;
62580;SDS011;48640;48.770;9.148;2023-03-04T13:56:04;29.13;;;17.88;;
62580;SDS011;48640;48.770;9.148;2023-03-04T13:59:00;35.30;;;18.58;;
62580;SDS011;48640;48.770;9.148;2023-03-04T14:02:02;32.53;;;19.15;;
62580;SDS011;48640;48.770;9.148;2023-03-04T14:04:38;34.55;;;18.42;;
62580;SDS011;48640;48.770;9.148;2023-03-04T14:07:19;34.60;;;18.20;;
62580;SDS011;48640;48.770;9.148;2023-03-04T14:09:53;32.88;;;16.65;;
62580;SDS011;48640;48.770;9.148;2023-03-04T14:12:25;33.08;;;17.27;;
62580;SDS011;48640;48.770;9.148;2023-03-04T14:14:55;34.15;;;14.98;;
62580;SDS011;48640;48.770;9.148;2023-03-04T14:17:24;32.38;;;16.58;;
62580;SDS011;48640;48.770;9.148;2023-03-04T14:19:56;31.63;;;15.75;;
62580;SDS011;48640;48.770;9.148;2023-03-04T14:22:25;28.55;;;15.45;;
62580;SDS011;48640;48.770;9.148;2023-03-04T14:24:54;34.40;;;16.20;;
62580;SDS011;48640;48.770;9.148;2023-03-04T14:27:26;29.63;;;14.90;;
62580;SDS011;48640;48.770;9.148;2023-03-04T14:29:54;30.92;;;15.75;;
62580;SDS011;48640;48.770;9.148;2023-03-04T14:32:22;34.10;;;17.15;;
62580;SDS011;48640;48.770;9.148;2023-03-04T14:34:49;29.50;;;15.93;;
62580;SDS011;48640;48.770;9.148;2023-03-04T14:39:48;24.85;;;13.88;;
62580;SDS011;48640;48.770;9.148;2023-03-04T14:42:18;30.10;;;16.50;;
62580;SDS011;48640;48.770;9.148;2023-03-04T14:44:48;29.45;;;16.38;;
62580;SDS011;48640;48.770;9.148;2023-03-04T14:47:17;38.78;;;17.80;;
62580;SDS011;48640;48.770;9.148;2023-03-04T14:49:48;41.03;;;21.38;;
62580;SDS011;48640;48.770;9.148;2023-03-04T14:52:36;33.42;;;17.52;;
62580;SDS011;48640;48.770;9.148;2023-03-04T14:55:14;36.55;;;17.70;;
62580;SDS011;48640;48.770;9.148;2023-03-04T14:57:49;31.80;;;17.70;;
62580;SDS011;48640;48.770;9.148;2023-03-04T15:00:32;32.72;;;17.50;;